3WI0 weather

Carnot Field
Algoma, Wisconsin, United States

Public forecast

Using degrees Fahrenheit for public forecast. Weather courtesy of forecast.io.

Closest aviation weather report (METAR) to Carnot Field

Closest report is Door County Cherryland Airport, 12.1 nm (22.4 km) N. Retrieved 2019/11/21 02:20 UTC (0 seconds ago):

KSUE 210220Z AUTO 15009KT 4SM BR BKN005 OVC080 04/04 A3007 RMK AO2

Closest aviation forecast (TAF) to Carnot Field

Closest forecast is Austin Straubel International Airport, 31.8 nm (58.9 km) WSW. Retrieved 2019-11-21 00:42 UTC (1 hour ago):

TAF KGRB 202339Z 2100/2124 16006KT P6SM SCT020 OVC100 FM210600 16008G16KT 6SM RA OVC040 WS020/20040KT TEMPO 2106/2109 5SM RA OVC030 FM210900 16010G17KT 4SM RA BR OVC010 WS020/20040KT FM211100 19008G15KT 3SM RA BR OVC006 WS020/20040KT FM212000 33012G19KT P6SM OVC015